CheckWX is a tool to help pilots better visualize weather data.  It is not intended as a substitute for an official pre-flight weather briefing.

18:08:16 UTC

KLIT METAR
Bill and Hillary Clinton National / Adams Field Airport
Little Rock, Arkansas, USA
Current

1 hour ago

KLIT 251653Z 31005KT 10SM FEW100 SCT250 07/M01 A3021 RMK AO2 SLP234 T00671011 $
Observed
Jan-25 @ 16:53 UTC
Wind
  • 310° at 5 KTS
Visibility
10 SM
Flight Rules
VFR
Cloud Levels
  • Few at 10,000' AGL
  • Scattered at 25,000' AGL
Temperature
C / 45°F
Dewpoint
-1°C / 30°F
Humidity
57%
Altimeter
30.21" Hg
Pressure
1023.02 hPa
Previous

2 hours ago

KLIT 251553Z VRB04KT 10SM FEW080 SCT250 04/M01 A3022 RMK AO2 SLP238 T00441011 $
Observed
Jan-25 @ 15:53 UTC
Wind
  • Variable at 4 KTS
Visibility
10 SM
Flight Rules
VFR
Cloud Levels
  • Few at 8,000' AGL
  • Scattered at 25,000' AGL
Temperature
C / 39°F
Dewpoint
-1°C / 30°F
Humidity
70%
Altimeter
30.22" Hg
Pressure
1023.42 hPa
Previous

3 hours ago

KLIT 251453Z 25005KT 10SM FEW080 SCT250 02/M01 A3022 RMK AO2 SLP239 T00221011 53019 $
Observed
Jan-25 @ 14:53 UTC
Wind
  • 250° at 5 KTS
Visibility
10 SM
Flight Rules
VFR
Cloud Levels
  • Few at 8,000' AGL
  • Scattered at 25,000' AGL
Temperature
C / 36°F
Dewpoint
-1°C / 30°F
Humidity
81%
Altimeter
30.22" Hg
Pressure
1023.42 hPa